• Join FlightAware (Why Join?)
  • Login
  • US Flag 
01:40PM EDT


 

Airport Tracker/Info


-or-


 

Live Flight TrackerFlight Track Log ✈ TAM3764 ✈ 21-May-2013 ✈ SBLO / LDB - SBSP / CGH

Flight Track Log - Related Links

Times and Time Zones

All times are in EDT time to prevent confusion due to time zone crossing. See the TAM3764 flight status page for this flight to view local times or setup timezone preferences in your user account.

Time Position Orientation Groundspeed Altitude Reporting Facility
EDT Latitude Longitude Course Direction KTS MPH feet Rate Location/Type
07:39PM -23.5643 -47.7948 95° East  Level Estimated
07:40PM -23.5699 -47.6994 94° East  Level Estimated
07:41PM -23.5753 -47.6039 94° East  Level Estimated
07:42PM -23.5808 -47.5084 94° East  Level Estimated
07:43PM -23.5861 -47.4130 94° East  Level Estimated
07:44PM -23.5915 -47.3175 93° East  Level Estimated
07:45PM -23.5967 -47.2220 93° East  Level Estimated
07:46PM -23.6019 -47.1265 93° East  Level Estimated
07:47PM -23.6071 -47.0310 93° East  Level Estimated
07:48PM -23.6121 -46.9355 93° East  Level Estimated
07:49PM -23.6172 -46.8399 93° East  Level Estimated
07:50PM -23.6221 -46.7444 93° East  Level Estimated
07:51PM -23.6267 -46.6554 93° East  Level Estimated
07:52PM -23.6267 -46.6554 114° Southeast  Level Estimated
07:53PM -23.6267 -46.6554 114° Southeast  Level Estimated
07:54PM -23.6267 -46.6554 114° Southeast  Level Estimated
07:55PM -23.6267 -46.6554 114° Southeast  Level Estimated
07:56PM -23.6267 -46.6554 114° Southeast  Level Estimated
07:57PM -23.6267 -46.6554 114° Southeast  Level Estimated
07:58PM -23.6267 -46.6554 114° Southeast  Level Estimated
07:59PM -23.6267 -46.6554 114° Southeast  Level Estimated
08:00PM -23.6267 -46.6554 114° Southeast  Level Estimated
08:01PM -23.6267 -46.6554 114° Southeast  Level Estimated
08:02PM -23.6267 -46.6554 114° Southeast  Level Estimated
08:03PM -23.6267 -46.6554 114° Southeast  Level Estimated
08:04PM -23.6267 -46.6554 114° Southeast  Level Estimated
08:05PM -23.6267 -46.6554 114° Southeast  Level Estimated
08:06PM -23.6267 -46.6554 114° Southeast  Level Estimated
08:07PM -23.6267 -46.6554 114° Southeast  Level Estimated